createdAt,value
2022-09-07T08:24:34.744Z,23.53
2022-09-07T08:26:37.529Z,23.53
2022-09-07T08:28:42.436Z,23.58
2022-09-07T08:30:44.778Z,23.73
2022-09-07T08:32:47.350Z,24.07
2022-09-07T08:34:49.638Z,23.99
2022-09-07T08:36:51.890Z,24.25
2022-09-07T08:38:54.419Z,24.45
2022-09-07T08:40:57.805Z,24.47
2022-09-07T08:43:08.920Z,24.60
2022-09-07T08:45:18.643Z,24.77
2022-09-07T08:47:39.682Z,25.01
2022-09-07T08:50:17.468Z,25.02
2022-09-07T08:52:33.012Z,25.05
2022-09-07T08:54:37.063Z,25.62
2022-09-07T08:57:20.462Z,25.79
2022-09-07T08:59:35.839Z,26.04
2022-09-07T09:01:42.289Z,26.16
2022-09-07T09:04:17.322Z,26.16
2022-09-07T09:06:33.665Z,26.14
2022-09-07T09:08:49.997Z,25.84
2022-09-07T09:11:10.668Z,26.21
2022-09-07T09:13:28.907Z,26.08
2022-09-07T09:15:45.477Z,25.92
2022-09-07T09:17:50.721Z,26.02
2022-09-07T09:20:05.657Z,25.84
2022-09-07T09:22:07.855Z,26.39
2022-09-07T09:24:19.340Z,26.67
2022-09-07T09:26:27.020Z,26.67
2022-09-07T09:28:31.879Z,27.01
2022-09-07T09:30:34.813Z,27.26
2022-09-07T09:32:41.587Z,27.23
2022-09-07T09:35:23.289Z,27.29
2022-09-07T09:37:34.699Z,27.79
2022-09-07T09:39:37.929Z,27.46
2022-09-07T09:41:40.444Z,27.05
2022-09-07T09:43:51.547Z,27.41
2022-09-07T09:46:12.654Z,27.03
2022-09-07T09:48:22.566Z,27.06
2022-09-07T09:52:55.393Z,27.69
2022-09-07T09:55:17.241Z,27.06
2022-09-07T10:00:27.916Z,26.79
2022-09-07T10:04:55.739Z,27.11
2022-09-07T10:07:16.582Z,27.31
2022-09-07T10:09:29.552Z,27.33
2022-09-07T10:12:09.817Z,27.12
2022-09-07T10:14:25.199Z,27.12
2022-09-07T10:16:40.484Z,26.96
2022-09-07T10:18:57.606Z,27.63
2022-09-07T10:21:35.568Z,28.45
2022-09-07T10:23:38.460Z,28.32
2022-09-07T10:25:45.457Z,28.47
2022-09-07T10:27:47.894Z,28.69
2022-09-07T10:29:50.456Z,28.31
2022-09-07T10:32:05.974Z,28.59
2022-09-07T10:34:29.477Z,28.82
2022-09-07T10:36:47.394Z,28.87
2022-09-07T10:39:25.657Z,29.00
2022-09-07T10:41:46.202Z,29.33
2022-09-07T10:43:50.749Z,29.49
2022-09-07T10:45:59.425Z,29.61
2022-09-07T10:48:59.820Z,29.11
2022-09-07T10:51:14.509Z,29.53
2022-09-07T10:53:44.909Z,29.78
2022-09-07T10:56:06.378Z,30.00
2022-09-07T10:58:20.777Z,30.15
2022-09-07T11:00:24.488Z,30.14
2022-09-07T11:03:27.138Z,30.32
2022-09-07T11:05:38.787Z,30.72
2022-09-07T11:07:59.809Z,30.86
2022-09-07T11:10:17.019Z,30.87
2022-09-07T11:12:27.963Z,31.07
2022-09-07T11:14:38.336Z,31.20
2022-09-07T11:16:51.915Z,31.90
2022-09-07T11:24:12.197Z,32.80
2022-09-07T11:26:19.921Z,34.11
2022-09-07T11:28:38.428Z,35.13
2022-09-07T11:30:46.911Z,35.76
2022-09-07T11:32:54.992Z,36.12
2022-09-07T11:35:00.003Z,36.30
2022-09-07T11:37:46.588Z,37.05
2022-09-07T11:39:58.883Z,38.00
2022-09-07T11:44:49.788Z,36.74
2022-09-07T11:46:55.855Z,36.59
2022-09-07T11:48:58.769Z,35.84
2022-09-07T11:51:08.160Z,35.74
2022-09-07T11:53:26.954Z,34.15
2022-09-07T11:55:35.536Z,35.32
2022-09-07T11:58:19.560Z,34.93
2022-09-07T12:00:27.982Z,35.66
2022-09-07T12:03:08.066Z,35.34
2022-09-07T12:05:30.550Z,34.76
2022-09-07T12:07:39.177Z,35.89
2022-09-07T12:09:44.327Z,34.87
2022-09-07T12:12:19.369Z,35.41
2022-09-07T12:14:34.134Z,35.70
2022-09-07T12:16:55.251Z,36.77
2022-09-07T12:19:00.359Z,36.02
2022-09-07T12:21:03.411Z,35.56
2022-09-07T12:23:27.034Z,36.98
2022-09-07T12:25:30.215Z,36.67
2022-09-07T12:27:32.742Z,36.87
2022-09-07T12:29:35.174Z,37.53
2022-09-07T12:31:57.816Z,37.34
2022-09-07T12:34:29.758Z,36.59
2022-09-07T12:36:32.189Z,35.39
2022-09-07T12:38:37.089Z,34.41
2022-09-07T12:40:46.038Z,35.63
2022-09-07T12:42:48.389Z,36.80
2022-09-07T12:45:28.833Z,37.59
2022-09-07T12:47:31.335Z,38.00
2022-09-07T12:49:36.556Z,37.95
2022-09-07T12:54:27.263Z,37.59
2022-09-07T12:59:42.806Z,38.10
2022-09-07T13:02:05.133Z,39.69
2022-09-07T13:04:29.278Z,39.04
2022-09-07T13:09:31.125Z,40.34
2022-09-07T13:11:38.414Z,39.43
2022-09-07T13:16:05.922Z,39.66
2022-09-07T13:18:36.644Z,38.53
2022-09-07T13:20:41.491Z,36.66
2022-09-07T13:22:44.717Z,34.72
2022-09-07T13:24:53.282Z,33.60
2022-09-07T13:27:43.513Z,31.86
2022-09-07T13:29:55.298Z,31.97
2022-09-07T13:32:13.357Z,31.77
2022-09-07T13:34:32.572Z,31.55
2022-09-07T13:36:39.481Z,31.05
2022-09-07T13:38:43.538Z,30.59
2022-09-07T13:40:47.950Z,30.83
2022-09-07T13:42:52.344Z,30.82
2022-09-07T13:45:00.785Z,30.63
2022-09-07T13:47:14.155Z,30.45
2022-09-07T13:49:58.786Z,30.80
2022-09-07T13:52:16.512Z,30.42
2022-09-07T13:54:48.041Z,30.07
2022-09-07T13:57:09.576Z,30.31
2022-09-07T13:59:23.845Z,30.14
2022-09-07T14:01:28.726Z,30.30
2022-09-07T14:03:39.351Z,30.33
2022-09-07T14:05:41.483Z,30.38
2022-09-07T14:07:47.518Z,30.72
2022-09-07T14:09:51.183Z,30.55
2022-09-07T14:11:55.713Z,30.46
2022-09-07T14:14:13.899Z,30.56
2022-09-07T14:16:16.477Z,30.45
2022-09-07T14:18:30.410Z,30.30
2022-09-07T14:20:40.650Z,30.08
2022-09-07T14:22:44.225Z,30.15
2022-09-07T14:24:57.970Z,30.02
2022-09-07T14:27:00.731Z,29.87
2022-09-07T14:29:03.425Z,30.17
2022-09-07T14:31:10.147Z,30.27
2022-09-07T14:33:17.379Z,30.16
2022-09-07T14:35:31.957Z,30.16
2022-09-07T14:37:34.401Z,30.25
2022-09-07T14:39:41.615Z,29.87
2022-09-07T14:41:45.287Z,29.85
2022-09-07T14:43:56.249Z,29.61
2022-09-07T14:46:19.782Z,29.38
2022-09-07T14:48:31.473Z,29.47
2022-09-07T14:50:41.427Z,29.47
2022-09-07T14:53:34.101Z,29.37
2022-09-07T14:55:28.361Z,29.46
2022-09-07T14:57:32.378Z,29.48
2022-09-07T14:59:48.246Z,29.54
2022-09-07T15:01:51.001Z,29.35
2022-09-07T15:04:02.519Z,29.36
2022-09-07T15:06:06.488Z,28.95
2022-09-07T15:08:19.899Z,28.98
2022-09-07T15:10:23.210Z,29.12
2022-09-07T15:12:38.159Z,29.19
2022-09-07T15:14:42.294Z,29.16
2022-09-07T15:16:45.378Z,29.07
2022-09-07T15:19:05.732Z,28.84
2022-09-07T15:21:09.038Z,28.67
2022-09-07T15:23:16.942Z,28.69
2022-09-07T15:25:19.288Z,28.58
2022-09-07T15:27:28.844Z,28.69
2022-09-07T15:29:32.143Z,28.71
2022-09-07T15:31:42.528Z,28.84
2022-09-07T15:33:47.873Z,28.84
2022-09-07T15:35:52.113Z,29.02
2022-09-07T15:38:03.263Z,29.03
2022-09-07T15:40:20.717Z,28.87
2022-09-07T15:44:46.007Z,28.85
2022-09-07T15:49:12.549Z,28.58
2022-09-07T15:56:03.135Z,28.71
2022-09-07T15:58:11.875Z,28.62
2022-09-07T16:00:15.126Z,28.78
2022-09-07T16:04:40.090Z,28.72
2022-09-07T16:06:42.585Z,28.49
2022-09-07T16:08:45.304Z,28.40
2022-09-07T16:10:55.852Z,28.54
2022-09-07T16:13:01.513Z,28.69
2022-09-07T16:15:05.887Z,28.53
2022-09-07T16:19:30.895Z,28.54
2022-09-07T16:21:41.010Z,28.58
2022-09-07T16:23:48.847Z,28.42
2022-09-07T16:25:59.972Z,28.38
2022-09-07T16:28:04.292Z,28.33
2022-09-07T16:30:07.119Z,28.40
2022-09-07T16:34:32.893Z,28.28
2022-09-07T16:36:35.202Z,28.05
2022-09-07T16:38:55.391Z,27.90
2022-09-07T16:41:01.126Z,27.88
2022-09-07T16:43:03.393Z,27.85
2022-09-07T16:47:28.765Z,27.72
2022-09-07T16:49:31.253Z,27.80
2022-09-07T16:51:34.903Z,27.47
2022-09-07T16:53:38.202Z,27.73
2022-09-07T16:55:41.925Z,27.72
2022-09-07T17:00:07.352Z,27.36
2022-09-07T17:02:16.093Z,27.72
2022-09-07T17:04:18.809Z,27.51
2022-09-07T17:06:24.832Z,27.52
2022-09-07T17:08:27.704Z,27.32
2022-09-07T17:10:30.067Z,27.24
2022-09-07T17:12:32.614Z,27.39
2022-09-07T17:14:34.901Z,27.30
2022-09-07T17:16:39.826Z,27.22
2022-09-07T17:21:06.964Z,27.05
2022-09-07T17:23:09.429Z,26.91
2022-09-07T17:25:14.117Z,27.05
2022-09-07T17:27:16.568Z,27.13
2022-09-07T17:29:19.056Z,27.01
2022-09-07T17:33:53.045Z,26.99
2022-09-07T17:35:55.475Z,26.92
2022-09-07T17:37:58.327Z,26.79
2022-09-07T17:40:01.273Z,26.73
2022-09-07T17:42:07.559Z,26.63
2022-09-07T17:44:10.266Z,26.51
2022-09-07T17:46:15.840Z,26.40
2022-09-07T17:48:18.188Z,26.46
2022-09-07T17:50:20.841Z,26.43
2022-09-07T17:52:23.347Z,26.46
2022-09-07T17:54:25.962Z,26.84
2022-09-07T17:56:29.296Z,26.63
2022-09-07T17:58:31.799Z,26.58
2022-09-07T18:00:34.775Z,26.82
2022-09-07T18:02:37.724Z,26.86
2022-09-07T18:04:40.480Z,26.78
2022-09-07T18:06:43.168Z,26.79
2022-09-07T18:08:52.856Z,26.82
2022-09-07T18:13:25.541Z,26.55
2022-09-07T18:15:38.787Z,26.67
2022-09-07T18:17:41.522Z,26.74
2022-09-07T18:19:44.216Z,26.67
2022-09-07T18:21:48.258Z,26.68
2022-09-07T18:23:56.539Z,26.67
2022-09-07T18:25:59.306Z,26.99
2022-09-07T18:30:26.266Z,27.96
2022-09-07T18:32:28.933Z,28.60
2022-09-07T18:34:32.224Z,28.58
2022-09-07T18:36:36.092Z,29.51
2022-09-07T18:38:38.820Z,29.46
2022-09-07T18:40:41.919Z,29.82
2022-09-07T18:42:45.084Z,29.83
2022-09-07T18:47:17.466Z,29.89
2022-09-07T18:49:24.988Z,30.24
2022-09-07T18:51:28.107Z,29.79
2022-09-07T18:53:32.315Z,29.71
2022-09-07T18:55:35.099Z,29.52
2022-09-07T18:57:38.369Z,29.78
2022-09-07T18:59:41.382Z,29.88
2022-09-07T19:01:44.303Z,30.66
2022-09-07T19:03:54.145Z,30.64
2022-09-07T19:05:59.226Z,30.46
2022-09-07T19:08:03.781Z,30.98
2022-09-07T19:10:08.395Z,30.65
2022-09-07T19:12:11.415Z,30.43
2022-09-07T19:14:14.254Z,30.23
2022-09-07T19:16:19.490Z,30.49
2022-09-07T19:18:22.464Z,30.64
2022-09-07T19:20:26.386Z,30.59
2022-09-07T19:22:29.001Z,30.08
2022-09-07T19:24:32.218Z,29.95
2022-09-07T19:26:37.945Z,29.93
2022-09-07T19:28:40.601Z,30.38
2022-09-07T19:30:43.557Z,30.33
2022-09-07T19:32:46.206Z,30.71
2022-09-07T19:34:54.723Z,30.99
2022-09-07T19:36:57.698Z,30.69
2022-09-07T19:39:01.086Z,30.63
2022-09-07T19:41:04.212Z,30.11
2022-09-07T19:43:08.690Z,30.34
2022-09-07T19:45:11.758Z,30.59
2022-09-07T19:47:14.401Z,31.11
2022-09-07T19:49:17.499Z,30.91
2022-09-07T19:51:20.290Z,30.10
2022-09-07T19:53:23.972Z,29.72
2022-09-07T19:55:27.956Z,29.59
2022-09-07T19:57:30.607Z,30.04
2022-09-07T19:59:33.400Z,30.11
2022-09-07T20:01:38.106Z,30.48
2022-09-07T20:03:42.422Z,29.53
2022-09-07T20:05:45.096Z,29.98
2022-09-07T20:07:47.722Z,30.28
2022-09-07T20:09:51.785Z,29.83
2022-09-07T20:11:57.211Z,30.18
2022-09-07T20:13:59.789Z,29.95
2022-09-07T20:16:11.962Z,29.89
2022-09-07T20:18:15.217Z,29.50
2022-09-07T20:20:18.107Z,29.55
2022-09-07T20:22:20.952Z,30.22
2022-09-07T20:24:23.802Z,30.11
2022-09-07T20:26:26.409Z,30.49
2022-09-07T20:28:30.029Z,30.32
2022-09-07T20:30:33.902Z,30.32
2022-09-07T20:32:36.400Z,29.87
2022-09-07T20:34:39.117Z,29.54
2022-09-07T20:36:41.804Z,29.97
2022-09-07T20:38:51.203Z,29.68
2022-09-07T20:40:56.239Z,29.20
2022-09-07T20:42:58.844Z,29.48
2022-09-07T20:45:02.251Z,29.43
2022-09-07T20:47:05.005Z,29.90
2022-09-07T20:49:07.503Z,30.04
2022-09-07T20:51:12.514Z,30.21
2022-09-07T20:53:15.149Z,29.36
2022-09-07T20:55:17.601Z,29.30
2022-09-07T20:57:19.877Z,28.98
2022-09-07T20:59:22.503Z,28.77
2022-09-07T21:01:25.195Z,29.10
2022-09-07T21:03:28.926Z,29.16
2022-09-07T21:05:35.535Z,28.87
2022-09-07T21:07:38.957Z,28.65
2022-09-07T21:09:41.262Z,29.31
2022-09-07T21:11:48.567Z,29.23
2022-09-07T21:13:59.779Z,29.11
2022-09-07T21:16:12.356Z,29.33
2022-09-07T21:18:16.711Z,29.24
2022-09-07T21:20:19.028Z,29.43
2022-09-07T21:22:21.469Z,28.95
2022-09-07T21:24:24.222Z,28.97
2022-09-07T21:26:28.290Z,29.24
2022-09-07T21:28:30.849Z,29.09
2022-09-07T21:30:33.386Z,29.03
2022-09-07T21:32:35.784Z,28.20
2022-09-07T21:34:38.069Z,28.52
2022-09-07T21:36:40.632Z,28.77
2022-09-07T21:38:42.899Z,28.31
2022-09-07T21:40:45.177Z,28.19
2022-09-07T21:42:47.720Z,28.53
2022-09-07T21:44:49.939Z,28.19
2022-09-07T21:46:52.353Z,28.30
2022-09-07T21:48:56.623Z,28.20
2022-09-07T21:50:58.832Z,28.29
2022-09-07T21:53:01.612Z,28.16
2022-09-07T21:55:04.925Z,28.38
2022-09-07T21:57:07.252Z,28.33
2022-09-07T21:59:09.625Z,28.29
